createdAt,value
2022-08-05T00:02:24.046Z,10.97
2022-08-05T00:04:55.853Z,9.80
2022-08-05T00:07:58.917Z,10.77
2022-08-05T00:10:11.488Z,9.33
2022-08-05T00:12:56.120Z,9.30
2022-08-05T00:15:56.263Z,9.50
2022-08-05T00:18:19.855Z,7.07
2022-08-05T00:20:50.781Z,8.37
2022-08-05T00:23:44.685Z,6.40
2022-08-05T00:26:06.599Z,6.07
2022-08-05T00:28:34.977Z,5.50
2022-08-05T00:31:04.673Z,7.20
2022-08-05T00:34:53.220Z,5.00
2022-08-05T00:37:12.356Z,5.50
2022-08-05T00:39:13.887Z,6.23
2022-08-05T00:41:55.289Z,5.30
2022-08-05T00:44:30.835Z,5.03
2022-08-05T00:47:02.171Z,4.17
2022-08-05T00:49:51.080Z,5.33
2022-08-05T00:52:28.439Z,4.80
2022-08-05T00:54:56.505Z,4.47
2022-08-05T00:57:25.465Z,4.20
2022-08-05T01:00:11.205Z,4.00
2022-08-05T01:02:40.885Z,4.03
2022-08-05T01:05:10.348Z,3.70
2022-08-05T01:07:38.032Z,3.97
2022-08-05T01:10:29.907Z,3.50
2022-08-05T01:13:13.352Z,3.83
2022-08-05T01:15:54.919Z,3.50
2022-08-05T01:18:27.471Z,3.47
2022-08-05T01:21:09.406Z,3.80
2022-08-05T01:23:53.895Z,3.73
2022-08-05T01:26:37.770Z,3.23
2022-08-05T01:29:10.588Z,3.10
2022-08-05T01:31:44.771Z,3.60
2022-08-05T01:34:18.300Z,4.03
2022-08-05T01:36:51.667Z,3.30
2022-08-05T01:39:46.703Z,3.40
2022-08-05T01:42:09.771Z,3.10
2022-08-05T01:44:40.428Z,2.47
2022-08-05T01:47:09.614Z,3.73
2022-08-05T01:50:00.438Z,2.60
2022-08-05T01:52:26.636Z,2.50
2022-08-05T01:54:58.600Z,2.60
2022-08-05T01:58:29.497Z,2.87
2022-08-05T02:00:19.692Z,2.40
2022-08-05T02:02:55.080Z,2.73
2022-08-05T02:05:28.675Z,2.50
2022-08-05T02:08:01.462Z,2.63
2022-08-05T02:10:34.772Z,3.00
2022-08-05T02:13:04.889Z,2.03
2022-08-05T02:15:48.583Z,2.73
2022-08-05T02:18:30.855Z,2.40
2022-08-05T02:21:05.685Z,2.50
2022-08-05T02:23:35.829Z,2.53
2022-08-05T02:26:06.602Z,2.40
2022-08-05T02:28:41.725Z,2.33
2022-08-05T02:31:17.136Z,2.30
2022-08-05T02:33:57.743Z,2.80
2022-08-05T02:36:27.306Z,2.60
2022-08-05T02:38:57.747Z,2.17
2022-08-05T02:41:28.424Z,2.27
2022-08-05T02:44:11.174Z,2.70
2022-08-05T02:46:43.842Z,2.33
2022-08-05T02:49:21.930Z,2.47
2022-08-05T02:52:03.552Z,3.00
2022-08-05T02:54:36.039Z,4.03
2022-08-05T02:57:10.410Z,3.47
2022-08-05T02:59:54.181Z,2.90
2022-08-05T03:02:27.679Z,3.07
2022-08-05T03:04:56.441Z,3.40
2022-08-05T03:07:40.504Z,3.30
2022-08-05T03:10:13.265Z,3.60
2022-08-05T03:12:41.327Z,3.30
2022-08-05T03:15:12.361Z,4.40
2022-08-05T03:17:44.735Z,3.40
2022-08-05T03:20:13.493Z,3.80
2022-08-05T03:22:43.936Z,3.63
2022-08-05T03:25:33.079Z,4.00
2022-08-05T03:28:03.470Z,3.57
2022-08-05T03:30:34.178Z,4.07
2022-08-05T03:33:05.792Z,5.20
2022-08-05T03:35:41.012Z,4.17
2022-08-05T03:38:11.568Z,3.63
2022-08-05T03:40:41.194Z,5.00
2022-08-05T03:43:59.167Z,4.27
2022-08-05T03:46:01.508Z,4.30
2022-08-05T03:48:35.382Z,4.93
2022-08-05T03:52:37.066Z,4.93
2022-08-05T03:55:50.895Z,4.23
2022-08-05T03:56:50.018Z,4.27
2022-08-05T03:59:20.363Z,4.43
2022-08-05T04:01:51.185Z,5.00
2022-08-05T04:04:22.277Z,4.60
2022-08-05T04:06:54.302Z,4.83
2022-08-05T04:09:26.391Z,4.63
2022-08-05T04:11:56.408Z,5.30
2022-08-05T04:14:30.024Z,6.37
2022-08-05T04:16:58.969Z,5.17
2022-08-05T04:19:28.911Z,4.70
2022-08-05T04:22:09.352Z,5.03
2022-08-05T04:24:44.360Z,5.43
2022-08-05T04:27:13.248Z,4.60
2022-08-05T04:29:41.898Z,4.93
2022-08-05T04:32:10.433Z,5.60
2022-08-05T04:34:42.967Z,5.50
2022-08-05T04:37:11.319Z,5.20
2022-08-05T04:39:39.135Z,5.90
2022-08-05T04:42:10.894Z,5.40
2022-08-05T04:44:39.282Z,7.37
2022-08-05T04:47:09.805Z,5.77
2022-08-05T04:50:02.749Z,6.50
2022-08-05T04:52:28.149Z,6.70
2022-08-05T04:54:57.485Z,6.50
2022-08-05T04:57:25.644Z,6.50
2022-08-05T04:59:57.301Z,5.70
2022-08-05T05:02:41.997Z,6.00
2022-08-05T05:05:25.964Z,5.60
2022-08-05T05:08:01.569Z,6.00
2022-08-05T05:10:30.732Z,5.27
2022-08-05T05:13:03.795Z,5.17
2022-08-05T05:15:59.260Z,5.57
2022-08-05T05:18:30.960Z,5.80
2022-08-05T05:21:03.291Z,6.07
2022-08-05T05:23:38.988Z,6.20
2022-08-05T05:26:18.917Z,6.10
2022-08-05T05:28:46.641Z,6.70
2022-08-05T05:31:14.469Z,7.20
2022-08-05T05:33:59.575Z,6.73
2022-08-05T05:36:31.720Z,6.70
2022-08-05T05:38:59.539Z,5.83
2022-08-05T05:41:39.991Z,7.00
2022-08-05T05:44:34.466Z,6.50
2022-08-05T05:46:58.045Z,6.20
2022-08-05T05:49:26.042Z,5.23
2022-08-05T05:51:55.500Z,6.80
2022-08-05T05:54:50.389Z,6.23
2022-08-05T05:57:13.843Z,6.23
2022-08-05T05:59:46.817Z,6.37
2022-08-05T06:02:16.832Z,6.37
2022-08-05T06:04:44.754Z,6.13
2022-08-05T06:07:22.443Z,6.60
2022-08-05T06:10:01.392Z,5.93
2022-08-05T06:12:31.820Z,6.03
2022-08-05T06:15:02.214Z,6.30
2022-08-05T06:17:30.863Z,7.37
2022-08-05T06:19:59.713Z,6.70
2022-08-05T06:22:30.041Z,5.80
2022-08-05T06:24:58.016Z,5.47
2022-08-05T06:28:10.625Z,6.00
2022-08-05T06:30:17.863Z,6.10
2022-08-05T06:32:50.583Z,6.20
2022-08-05T06:36:02.879Z,5.53
2022-08-05T06:38:11.339Z,5.60
2022-08-05T06:40:42.249Z,6.13
2022-08-05T06:43:59.048Z,5.40
2022-08-05T06:46:06.732Z,5.60
2022-08-05T06:48:53.271Z,5.50
2022-08-05T06:51:29.543Z,5.50
2022-08-05T06:54:02.669Z,6.17
2022-08-05T06:56:33.890Z,5.47
2022-08-05T06:59:02.553Z,4.70
2022-08-05T07:01:32.340Z,4.90
2022-08-05T07:04:01.471Z,5.40
2022-08-05T07:06:30.371Z,5.63
2022-08-05T07:09:04.209Z,4.93
2022-08-05T07:11:37.296Z,5.50
2022-08-05T07:14:29.972Z,5.40
2022-08-05T07:18:01.764Z,4.37
2022-08-05T07:20:31.665Z,5.07
2022-08-05T07:22:39.540Z,5.53
2022-08-05T07:25:23.217Z,5.27
2022-08-05T07:28:05.759Z,4.80
2022-08-05T07:30:39.902Z,4.70
2022-08-05T07:33:15.520Z,4.73
2022-08-05T07:36:02.372Z,4.83
2022-08-05T07:38:42.492Z,4.63
2022-08-05T07:41:35.067Z,4.40
2022-08-05T07:44:05.008Z,4.10
2022-08-05T07:46:33.765Z,4.80
2022-08-05T07:49:05.750Z,4.57
2022-08-05T07:51:37.371Z,4.20
2022-08-05T07:54:10.054Z,4.60
2022-08-05T07:57:01.810Z,4.30
2022-08-05T07:59:38.223Z,4.17
2022-08-05T08:02:15.694Z,5.00
2022-08-05T08:04:49.985Z,4.20
2022-08-05T08:07:18.561Z,4.87
2022-08-05T08:09:52.310Z,4.60
2022-08-05T08:12:37.142Z,5.40
2022-08-05T08:15:15.680Z,4.93
2022-08-05T08:17:49.772Z,4.20
2022-08-05T08:20:59.896Z,4.37
2022-08-05T08:23:11.734Z,4.57
2022-08-05T08:25:59.747Z,4.67
2022-08-05T08:28:36.868Z,4.67
2022-08-05T08:31:05.727Z,4.50
2022-08-05T08:33:37.624Z,4.03
2022-08-05T08:36:38.646Z,4.27
2022-08-05T08:38:56.149Z,4.13
2022-08-05T08:41:51.078Z,4.50
2022-08-05T08:45:23.663Z,4.83
2022-08-05T08:47:47.014Z,3.70
2022-08-05T08:50:22.231Z,4.10
2022-08-05T08:52:42.549Z,4.30
2022-08-05T08:55:19.515Z,4.20
2022-08-05T08:58:04.180Z,3.67
2022-08-05T09:00:33.314Z,4.00
2022-08-05T09:03:06.517Z,4.30
2022-08-05T09:05:38.837Z,3.77
2022-08-05T09:08:26.610Z,3.70
2022-08-05T09:10:55.212Z,3.80
2022-08-05T09:13:23.612Z,3.93
2022-08-05T09:15:52.853Z,3.17
2022-08-05T09:18:22.797Z,3.80
2022-08-05T09:20:51.277Z,3.63
2022-08-05T09:23:21.967Z,2.73
2022-08-05T09:26:02.880Z,3.13
2022-08-05T09:28:33.775Z,3.77
2022-08-05T09:31:43.960Z,3.40
2022-08-05T09:33:56.211Z,3.23
2022-08-05T09:36:27.673Z,2.83
2022-08-05T09:39:02.826Z,3.10
2022-08-05T09:41:32.923Z,3.13
2022-08-05T09:44:06.813Z,3.60
2022-08-05T09:46:35.859Z,3.10
2022-08-05T09:49:08.461Z,3.20
2022-08-05T09:51:49.557Z,3.20
2022-08-05T09:54:28.857Z,3.67
2022-08-05T09:57:01.351Z,3.33
2022-08-05T09:59:29.771Z,3.40
2022-08-05T10:02:07.678Z,3.67
2022-08-05T10:04:38.406Z,3.57
2022-08-05T10:07:20.964Z,2.80
2022-08-05T10:10:14.127Z,3.03
2022-08-05T10:12:49.731Z,3.47
2022-08-05T10:15:23.226Z,3.40
2022-08-05T10:18:12.930Z,3.57
2022-08-05T10:20:47.959Z,3.10
2022-08-05T10:23:33.960Z,3.07
2022-08-05T10:26:52.358Z,3.10
2022-08-05T10:28:57.838Z,3.30
2022-08-05T10:32:54.813Z,2.80
2022-08-05T10:34:14.747Z,5.50
2022-08-05T10:36:45.044Z,3.43
2022-08-05T10:39:24.907Z,3.03
2022-08-05T10:42:09.244Z,3.03
2022-08-05T10:44:39.995Z,3.30
2022-08-05T10:47:26.844Z,3.27
2022-08-05T10:50:20.555Z,3.00
2022-08-05T10:52:58.797Z,3.57
2022-08-05T10:55:27.606Z,3.20
2022-08-05T10:58:09.215Z,2.80
2022-08-05T11:00:42.154Z,2.60
2022-08-05T11:03:25.730Z,2.50
2022-08-05T11:06:15.651Z,2.83
2022-08-05T11:09:16.792Z,3.00
2022-08-05T11:11:52.593Z,2.70
2022-08-05T11:14:49.497Z,3.00
2022-08-05T11:17:57.566Z,3.27
2022-08-05T11:20:37.457Z,2.50
2022-08-05T11:24:05.160Z,2.10
2022-08-05T11:26:28.190Z,2.00
2022-08-05T11:29:12.567Z,1.87
2022-08-05T11:31:58.790Z,1.80
2022-08-05T11:34:39.921Z,1.87
2022-08-05T11:38:27.890Z,1.50
2022-08-05T11:41:13.976Z,1.60
2022-08-05T11:44:04.491Z,1.60
2022-08-05T11:46:36.686Z,1.70
2022-08-05T11:49:07.999Z,1.80
2022-08-05T11:51:44.707Z,1.90
2022-08-05T11:54:33.094Z,1.90
2022-08-05T11:57:08.407Z,1.50
2022-08-05T11:59:52.033Z,1.63
2022-08-05T12:02:30.686Z,1.83
2022-08-05T12:05:00.883Z,2.40
2022-08-05T12:08:08.483Z,1.83
2022-08-05T12:10:24.854Z,1.37
2022-08-05T12:13:17.058Z,2.70
2022-08-05T12:15:49.916Z,2.20
2022-08-05T12:18:24.335Z,1.93
2022-08-05T12:20:52.397Z,2.10
2022-08-05T12:23:20.244Z,1.80
2022-08-05T12:25:53.338Z,1.80
2022-08-05T12:28:36.779Z,2.20
2022-08-05T12:31:05.538Z,2.17
2022-08-05T12:33:36.659Z,2.20
2022-08-05T12:36:08.415Z,2.20
2022-08-05T12:38:37.809Z,2.90
2022-08-05T12:41:13.407Z,2.10
2022-08-05T12:43:53.680Z,2.70
2022-08-05T12:46:26.561Z,3.63
2022-08-05T12:49:13.193Z,2.97
2022-08-05T12:52:13.975Z,3.00
2022-08-05T12:54:49.709Z,2.57
2022-08-05T12:57:19.306Z,2.53
2022-08-05T13:02:00.105Z,2.67
2022-08-05T13:02:41.428Z,2.90
2022-08-05T13:05:12.581Z,3.20
2022-08-05T13:08:01.097Z,2.97
2022-08-05T13:10:32.326Z,2.23
2022-08-05T13:12:59.908Z,1.77
2022-08-05T13:15:42.160Z,1.93
2022-08-05T13:18:20.195Z,2.20
2022-08-05T13:20:48.983Z,2.10
2022-08-05T13:23:22.175Z,2.20
2022-08-05T13:25:59.248Z,1.60
2022-08-05T13:28:28.866Z,1.30
2022-08-05T13:30:58.058Z,1.60
2022-08-05T13:34:21.945Z,1.50
2022-08-05T13:36:14.434Z,1.67
2022-08-05T13:38:43.218Z,1.57
2022-08-05T13:41:11.207Z,1.50
2022-08-05T13:43:45.550Z,1.53
2022-08-05T13:46:50.544Z,1.57
2022-08-05T13:49:13.647Z,1.13
2022-08-05T13:51:46.254Z,1.30
2022-08-05T13:54:16.143Z,1.80
2022-08-05T13:56:51.556Z,1.20
2022-08-05T13:59:24.116Z,1.57
2022-08-05T14:01:58.146Z,1.57
2022-08-05T14:04:50.355Z,1.30
2022-08-05T14:07:55.668Z,1.30
2022-08-05T14:10:12.020Z,1.20
2022-08-05T14:12:39.952Z,1.50
2022-08-05T14:16:08.817Z,1.77
2022-08-05T14:18:01.045Z,2.63
2022-08-05T14:20:29.473Z,1.30
2022-08-05T14:22:57.576Z,2.23
2022-08-05T14:25:27.971Z,1.83
2022-08-05T14:27:56.409Z,1.37
2022-08-05T14:30:28.067Z,1.90
2022-08-05T14:32:56.705Z,2.23
2022-08-05T14:35:37.087Z,2.20
2022-08-05T14:38:05.311Z,2.17
2022-08-05T14:40:32.948Z,1.83
2022-08-05T14:43:01.636Z,1.80
2022-08-05T14:45:29.350Z,2.13
2022-08-05T14:48:05.379Z,2.20
2022-08-05T14:50:39.743Z,2.57
2022-08-05T14:53:08.703Z,1.87
2022-08-05T14:55:39.060Z,2.00
2022-08-05T14:58:11.623Z,1.93
2022-08-05T15:00:58.893Z,1.90
2022-08-05T15:03:34.087Z,2.13
2022-08-05T15:06:15.377Z,2.10
2022-08-05T15:08:59.146Z,2.00
2022-08-05T15:11:51.173Z,2.07
2022-08-05T15:14:33.461Z,2.10
2022-08-05T15:17:04.159Z,1.93
2022-08-05T15:19:32.203Z,2.00
2022-08-05T15:22:01.693Z,2.10
2022-08-05T15:24:29.936Z,1.80
2022-08-05T15:26:58.467Z,2.10
2022-08-05T15:29:30.252Z,2.07
2022-08-05T15:32:02.410Z,2.13
2022-08-05T15:34:34.004Z,2.27
2022-08-05T15:37:06.950Z,2.10
2022-08-05T15:40:59.880Z,1.83
2022-08-05T15:42:54.165Z,2.07
2022-08-05T15:45:38.546Z,2.40
2022-08-05T15:48:07.043Z,1.90
2022-08-05T15:50:34.958Z,1.83
2022-08-05T15:53:05.586Z,2.70
2022-08-05T15:56:01.789Z,1.70
2022-08-05T15:58:23.112Z,2.17
2022-08-05T16:01:11.797Z,1.70
2022-08-05T16:03:41.086Z,1.40
2022-08-05T16:06:11.519Z,1.57
2022-08-05T16:08:40.777Z,1.50
2022-08-05T16:11:08.753Z,1.40
2022-08-05T16:13:36.378Z,1.80
2022-08-05T16:16:04.862Z,1.40
2022-08-05T16:18:33.610Z,2.13
2022-08-05T16:21:03.979Z,1.20
2022-08-05T16:23:53.223Z,1.30
2022-08-05T16:26:26.555Z,2.00
2022-08-05T16:28:56.054Z,1.20
2022-08-05T16:31:24.153Z,1.03
2022-08-05T16:33:53.667Z,1.33
2022-08-05T16:36:23.835Z,1.30
2022-08-05T16:38:54.498Z,1.50
2022-08-05T16:42:15.369Z,1.60
2022-08-05T16:44:14.299Z,1.20
2022-08-05T16:46:55.948Z,1.00
2022-08-05T16:49:26.314Z,1.00
2022-08-05T16:51:56.900Z,1.37
2022-08-05T16:54:28.886Z,0.83
2022-08-05T16:57:00.968Z,1.07
2022-08-05T16:59:30.714Z,0.80
2022-08-05T17:01:59.519Z,1.30
2022-08-05T17:04:28.767Z,0.77
2022-08-05T17:06:59.977Z,1.00
2022-08-05T17:09:29.527Z,1.00
2022-08-05T17:11:59.941Z,1.47
2022-08-05T17:14:36.647Z,1.33
2022-08-05T17:17:14.479Z,1.07
2022-08-05T17:19:45.456Z,1.50
2022-08-05T17:22:24.446Z,0.90
2022-08-05T17:24:57.449Z,0.90
2022-08-05T17:27:27.162Z,1.20
2022-08-05T17:30:00.628Z,0.80
2022-08-05T17:32:30.269Z,1.10
2022-08-05T17:35:01.517Z,0.87
2022-08-05T17:37:41.397Z,1.20
2022-08-05T17:40:15.129Z,0.90
2022-08-05T17:42:50.533Z,0.80
2022-08-05T17:45:22.642Z,0.70
2022-08-05T17:47:54.517Z,1.00
2022-08-05T17:50:29.485Z,0.90
2022-08-05T17:52:59.981Z,0.90
2022-08-05T17:55:38.220Z,0.87
2022-08-05T17:58:12.785Z,0.90
2022-08-05T18:00:47.188Z,0.83
2022-08-05T18:06:12.244Z,1.40
2022-08-05T18:08:44.846Z,0.77
2022-08-05T18:11:23.616Z,0.70
2022-08-05T18:13:54.029Z,1.10
2022-08-05T18:16:23.241Z,0.83
2022-08-05T18:18:51.198Z,1.00
2022-08-05T18:21:22.940Z,0.73
2022-08-05T18:23:54.325Z,0.80
2022-08-05T18:26:22.394Z,0.70
2022-08-05T18:28:57.500Z,0.80
2022-08-05T18:31:32.999Z,0.97
2022-08-05T18:34:03.499Z,0.80
2022-08-05T18:36:35.294Z,0.77
2022-08-05T18:39:03.270Z,0.60
2022-08-05T18:41:57.001Z,0.77
2022-08-05T18:44:25.951Z,0.70
2022-08-05T18:47:04.907Z,0.73
2022-08-05T18:49:57.935Z,0.70
2022-08-05T18:52:35.620Z,0.70
2022-08-05T18:55:06.060Z,0.90
2022-08-05T18:57:43.610Z,1.00
2022-08-05T19:00:27.047Z,1.00
2022-08-05T19:03:03.750Z,0.97
2022-08-05T19:06:13.328Z,0.80
2022-08-05T19:08:21.644Z,0.80
2022-08-05T19:10:49.726Z,0.70
2022-08-05T19:13:17.715Z,0.80
2022-08-05T19:15:57.218Z,0.90
2022-08-05T19:18:29.683Z,0.90
2022-08-05T19:20:57.364Z,1.10
2022-08-05T19:24:05.238Z,1.10
2022-08-05T19:26:13.858Z,0.90
2022-08-05T19:28:43.200Z,0.60
2022-08-05T19:31:13.009Z,1.07
2022-08-05T19:33:48.751Z,1.57
2022-08-05T19:36:24.792Z,0.93
2022-08-05T19:38:52.398Z,1.30
2022-08-05T19:41:22.055Z,1.00
2022-08-05T19:44:12.977Z,1.00
2022-08-05T19:46:43.625Z,1.00
2022-08-05T19:49:17.274Z,1.00
2022-08-05T19:52:09.240Z,1.10
2022-08-05T19:54:34.617Z,0.83
2022-08-05T19:57:08.690Z,1.00
2022-08-05T19:59:55.247Z,1.23
2022-08-05T20:02:27.094Z,0.87
2022-08-05T20:04:58.968Z,0.73
2022-08-05T20:07:45.903Z,1.13
2022-08-05T20:10:15.856Z,0.97
2022-08-05T20:12:48.996Z,1.43
2022-08-05T20:15:48.815Z,0.90
2022-08-05T20:18:10.333Z,1.07
2022-08-05T20:20:56.488Z,1.20
2022-08-05T20:23:38.794Z,1.60
2022-08-05T20:26:16.557Z,1.00
2022-08-05T20:28:46.094Z,0.90
2022-08-05T20:31:16.494Z,1.10
2022-08-05T20:33:45.155Z,1.40
2022-08-05T20:36:16.425Z,1.40
2022-08-05T20:38:54.450Z,1.80
2022-08-05T20:41:27.411Z,1.13
2022-08-05T20:44:18.674Z,1.13
2022-08-05T20:46:58.138Z,1.37
2022-08-05T20:49:26.342Z,1.20
2022-08-05T20:51:57.496Z,1.27
2022-08-05T20:54:59.680Z,1.00
2022-08-05T20:57:21.425Z,1.30
2022-08-05T21:00:20.803Z,0.90
2022-08-05T21:02:54.454Z,1.00
2022-08-05T21:05:23.806Z,1.20
2022-08-05T21:07:52.909Z,1.60
2022-08-05T21:10:21.583Z,1.40
2022-08-05T21:13:08.172Z,1.33
2022-08-05T21:15:37.793Z,1.37
2022-08-05T21:18:05.809Z,1.53
2022-08-05T21:20:35.010Z,1.20
2022-08-05T21:23:04.737Z,1.43
2022-08-05T21:25:33.543Z,1.30
2022-08-05T21:28:02.570Z,1.73
2022-08-05T21:30:31.327Z,1.23
2022-08-05T21:32:59.742Z,1.43
2022-08-05T21:35:55.966Z,1.27
2022-08-05T21:38:19.998Z,1.60
2022-08-05T21:40:47.738Z,1.20
2022-08-05T21:43:17.693Z,1.67
2022-08-05T21:45:57.719Z,1.70
2022-08-05T21:48:28.529Z,1.60
2022-08-05T21:50:56.200Z,1.30
2022-08-05T21:53:27.154Z,1.20
2022-08-05T21:56:05.944Z,1.40
2022-08-05T21:58:42.358Z,2.00
2022-08-05T22:01:24.055Z,1.30
2022-08-05T22:03:53.660Z,1.20
2022-08-05T22:06:35.569Z,1.57
2022-08-05T22:09:14.017Z,1.60
2022-08-05T22:11:48.556Z,1.37
2022-08-05T22:14:37.225Z,1.33
2022-08-05T22:17:06.905Z,1.30
2022-08-05T22:20:01.495Z,1.17
2022-08-05T22:22:29.610Z,1.13
2022-08-05T22:25:21.646Z,1.50
2022-08-05T22:28:10.843Z,1.73
2022-08-05T22:30:53.565Z,1.20
2022-08-05T22:33:58.042Z,1.13
2022-08-05T22:36:14.209Z,1.23
2022-08-05T22:38:42.916Z,0.90
2022-08-05T22:41:12.150Z,1.37
2022-08-05T22:43:42.673Z,1.20
2022-08-05T22:46:12.034Z,1.20
2022-08-05T22:48:40.968Z,1.00
2022-08-05T22:51:22.460Z,0.83
2022-08-05T22:53:51.892Z,1.17
2022-08-05T22:56:30.702Z,0.90
2022-08-05T22:59:00.124Z,1.83
2022-08-05T23:02:03.805Z,1.40
2022-08-05T23:04:20.271Z,1.17
2022-08-05T23:06:48.055Z,1.20
2022-08-05T23:09:52.806Z,1.20
2022-08-05T23:12:05.713Z,1.70
2022-08-05T23:14:33.809Z,1.30
2022-08-05T23:17:24.628Z,1.03
2022-08-05T23:20:02.237Z,1.60
2022-08-05T23:22:30.975Z,1.83
2022-08-05T23:24:58.846Z,1.23
2022-08-05T23:27:42.309Z,1.57
2022-08-05T23:30:16.622Z,1.07
2022-08-05T23:32:45.149Z,1.20
2022-08-05T23:35:13.032Z,1.40
2022-08-05T23:37:40.956Z,1.50
2022-08-05T23:40:11.896Z,1.30
2022-08-05T23:42:41.078Z,1.70
2022-08-05T23:45:15.832Z,1.00
2022-08-05T23:47:48.325Z,0.90
2022-08-05T23:50:17.099Z,1.90
2022-08-05T23:52:50.075Z,0.93
2022-08-05T23:55:18.950Z,1.13
2022-08-05T23:57:51.119Z,1.60
